sensor_id;sensor_type;location;lat;lon;timestamp;pressure;altitude;pressure_sealevel;temperature;humidity
44697;BME280;57264;47.480;19.354;2023-03-03T00:00:59;99382.03;;;1.39;87.64
44697;BME280;57264;47.480;19.354;2023-03-03T00:03:25;99384.63;;;1.39;88.14
44697;BME280;57264;47.480;19.354;2023-03-03T00:05:52;99382.03;;;1.39;87.73
44697;BME280;57264;47.480;19.354;2023-03-03T00:08:19;99385.06;;;1.34;88.51
44697;BME280;57264;47.480;19.354;2023-03-03T00:10:45;99385.59;;;1.38;88.22
44697;BME280;57264;47.480;19.354;2023-03-03T00:13:19;99381.75;;;1.42;87.79
44697;BME280;57264;47.480;19.354;2023-03-03T00:15:46;99382.88;;;1.39;88.16
44697;BME280;57264;47.480;19.354;2023-03-03T00:18:28;99381.75;;;1.42;87.66
44697;BME280;57264;47.480;19.354;2023-03-03T00:20:58;99379.88;;;1.34;88.21
44697;BME280;57264;47.480;19.354;2023-03-03T00:23:39;99381.00;;;1.32;87.52
44697;BME280;57264;47.480;19.354;2023-03-03T00:26:30;99382.09;;;1.29;87.33
44697;BME280;57264;47.480;19.354;2023-03-03T00:28:58;99378.97;;;1.26;87.19
44697;BME280;57264;47.480;19.354;2023-03-03T00:31:33;99378.16;;;1.25;87.32
44697;BME280;57264;47.480;19.354;2023-03-03T00:36:48;99372.63;;;1.20;87.06
44697;BME280;57264;47.480;19.354;2023-03-03T00:41:43;99374.13;;;1.13;87.27
44697;BME280;57264;47.480;19.354;2023-03-03T00:47:36;99369.56;;;0.98;88.64
44697;BME280;57264;47.480;19.354;2023-03-03T00:52:39;99364.09;;;1.01;88.53
44697;BME280;57264;47.480;19.354;2023-03-03T00:55:07;99363.72;;;0.96;88.52
44697;BME280;57264;47.480;19.354;2023-03-03T00:57:33;99362.63;;;0.98;87.94
44697;BME280;57264;47.480;19.354;2023-03-03T00:59:58;99352.56;;;0.95;88.04
44697;BME280;57264;47.480;19.354;2023-03-03T01:04:51;99358.56;;;0.96;88.21
44697;BME280;57264;47.480;19.354;2023-03-03T01:07:17;99355.44;;;0.92;88.12
44697;BME280;57264;47.480;19.354;2023-03-03T01:09:43;99356.22;;;0.92;88.69
44697;BME280;57264;47.480;19.354;2023-03-03T01:12:10;99354.72;;;1.00;89.37
44697;BME280;57264;47.480;19.354;2023-03-03T01:14:36;99345.44;;;1.07;89.55
44697;BME280;57264;47.480;19.354;2023-03-03T01:17:02;99338.34;;;1.09;89.67
44697;BME280;57264;47.480;19.354;2023-03-03T01:19:27;99345.16;;;1.10;89.57
44697;BME280;57264;47.480;19.354;2023-03-03T01:21:53;99342.75;;;0.99;89.66
44697;BME280;57264;47.480;19.354;2023-03-03T01:24:20;99340.19;;;0.99;89.39
44697;BME280;57264;47.480;19.354;2023-03-03T01:26:45;99339.22;;;1.00;89.24
44697;BME280;57264;47.480;19.354;2023-03-03T01:29:11;99339.69;;;1.13;89.28
44697;BME280;57264;47.480;19.354;2023-03-03T01:31:36;99344.75;;;1.05;88.93
44697;BME280;57264;47.480;19.354;2023-03-03T01:34:02;99340.28;;;1.07;89.57
44697;BME280;57264;47.480;19.354;2023-03-03T01:36:28;99340.56;;;1.04;89.42
44697;BME280;57264;47.480;19.354;2023-03-03T01:38:54;99338.25;;;1.01;89.37
44697;BME280;57264;47.480;19.354;2023-03-03T01:41:19;99332.66;;;1.05;89.83
44697;BME280;57264;47.480;19.354;2023-03-03T01:43:48;99334.09;;;1.17;89.40
44697;BME280;57264;47.480;19.354;2023-03-03T01:46:40;99323.13;;;1.06;89.45
44697;BME280;57264;47.480;19.354;2023-03-03T01:49:15;99326.63;;;1.14;89.18
44697;BME280;57264;47.480;19.354;2023-03-03T01:52:02;99323.72;;;1.00;89.73
44697;BME280;57264;47.480;19.354;2023-03-03T01:54:37;99318.69;;;0.98;89.92
44697;BME280;57264;47.480;19.354;2023-03-03T01:57:06;99320.72;;;1.04;90.13
44697;BME280;57264;47.480;19.354;2023-03-03T01:59:40;99321.75;;;1.11;89.57
44697;BME280;57264;47.480;19.354;2023-03-03T02:02:07;99321.66;;;1.03;90.04
44697;BME280;57264;47.480;19.354;2023-03-03T02:04:34;99319.91;;;1.04;90.14
44697;BME280;57264;47.480;19.354;2023-03-03T02:07:04;99321.25;;;0.98;89.89
44697;BME280;57264;47.480;19.354;2023-03-03T02:12:15;99314.28;;;1.35;89.88
44697;BME280;57264;47.480;19.354;2023-03-03T02:14:41;99310.97;;;1.43;89.31
44697;BME280;57264;47.480;19.354;2023-03-03T02:17:07;99316.97;;;1.44;89.58
44697;BME280;57264;47.480;19.354;2023-03-03T02:19:49;99308.56;;;1.59;89.07
44697;BME280;57264;47.480;19.354;2023-03-03T02:22:25;99315.28;;;1.52;89.09
44697;BME280;57264;47.480;19.354;2023-03-03T02:25:01;99309.56;;;1.49;88.89
44697;BME280;57264;47.480;19.354;2023-03-03T02:27:27;99309.47;;;1.40;89.36
44697;BME280;57264;47.480;19.354;2023-03-03T02:29:55;99307.78;;;1.31;89.69
44697;BME280;57264;47.480;19.354;2023-03-03T02:32:21;99310.84;;;1.17;89.44
44697;BME280;57264;47.480;19.354;2023-03-03T02:34:50;99312.69;;;0.98;89.93
44697;BME280;57264;47.480;19.354;2023-03-03T02:37:16;99306.66;;;0.79;89.96
44697;BME280;57264;47.480;19.354;2023-03-03T02:39:42;99299.56;;;0.81;90.34
44697;BME280;57264;47.480;19.354;2023-03-03T02:42:19;99305.00;;;0.88;90.06
44697;BME280;57264;47.480;19.354;2023-03-03T02:44:46;99306.28;;;0.65;89.28
44697;BME280;57264;47.480;19.354;2023-03-03T02:47:11;99303.88;;;0.54;89.64
44697;BME280;57264;47.480;19.354;2023-03-03T02:49:37;99301.59;;;0.87;90.56
44697;BME280;57264;47.480;19.354;2023-03-03T02:52:06;99300.97;;;1.03;90.46
44697;BME280;57264;47.480;19.354;2023-03-03T02:54:34;99299.03;;;1.15;90.60
44697;BME280;57264;47.480;19.354;2023-03-03T02:57:00;99291.91;;;1.17;90.26
44697;BME280;57264;47.480;19.354;2023-03-03T02:59:26;99294.78;;;1.14;90.80
44697;BME280;57264;47.480;19.354;2023-03-03T03:01:53;99289.69;;;1.04;90.09
44697;BME280;57264;47.480;19.354;2023-03-03T03:04:21;99292.19;;;0.96;89.99
44697;BME280;57264;47.480;19.354;2023-03-03T03:06:48;99285.88;;;1.26;90.83
44697;BME280;57264;47.480;19.354;2023-03-03T03:09:15;99290.31;;;1.33;90.48
44697;BME280;57264;47.480;19.354;2023-03-03T03:11:41;99286.56;;;1.46;90.47
44697;BME280;57264;47.480;19.354;2023-03-03T03:14:08;99289.25;;;1.54;90.60
44697;BME280;57264;47.480;19.354;2023-03-03T03:16:35;99275.44;;;1.63;90.46
44697;BME280;57264;47.480;19.354;2023-03-03T03:19:01;99276.53;;;1.78;90.32
44697;BME280;57264;47.480;19.354;2023-03-03T03:21:27;99279.13;;;1.78;90.09
44697;BME280;57264;47.480;19.354;2023-03-03T03:23:53;99276.91;;;1.83;89.93
44697;BME280;57264;47.480;19.354;2023-03-03T03:26:18;99278.53;;;1.84;90.06
44697;BME280;57264;47.480;19.354;2023-03-03T03:28:46;99272.56;;;1.83;90.10
44697;BME280;57264;47.480;19.354;2023-03-03T03:31:12;99276.09;;;1.82;90.08
44697;BME280;57264;47.480;19.354;2023-03-03T03:33:38;99277.13;;;1.89;90.03
44697;BME280;57264;47.480;19.354;2023-03-03T03:36:04;99275.34;;;1.90;90.22
44697;BME280;57264;47.480;19.354;2023-03-03T03:38:31;99264.63;;;2.03;89.54
44697;BME280;57264;47.480;19.354;2023-03-03T03:40:58;99266.44;;;2.10;89.47
44697;BME280;57264;47.480;19.354;2023-03-03T03:43:24;99264.94;;;2.25;89.18
44697;BME280;57264;47.480;19.354;2023-03-03T03:45:49;99261.44;;;2.34;89.34
44697;BME280;57264;47.480;19.354;2023-03-03T03:48:16;99252.06;;;2.42;88.81
44697;BME280;57264;47.480;19.354;2023-03-03T03:50:43;99249.50;;;2.42;89.07
44697;BME280;57264;47.480;19.354;2023-03-03T03:53:09;99249.66;;;2.40;88.54
44697;BME280;57264;47.480;19.354;2023-03-03T03:55:34;99242.72;;;2.41;88.13
44697;BME280;57264;47.480;19.354;2023-03-03T03:58:00;99248.53;;;2.43;88.26
44697;BME280;57264;47.480;19.354;2023-03-03T04:00:26;99248.84;;;2.40;88.16
44697;BME280;57264;47.480;19.354;2023-03-03T04:02:51;99242.94;;;2.29;88.35
44697;BME280;57264;47.480;19.354;2023-03-03T04:05:17;99241.03;;;2.31;88.33
44697;BME280;57264;47.480;19.354;2023-03-03T04:07:43;99239.53;;;2.29;88.22
44697;BME280;57264;47.480;19.354;2023-03-03T04:10:09;99247.03;;;2.32;88.47
44697;BME280;57264;47.480;19.354;2023-03-03T04:12:35;99249.44;;;2.33;88.02
44697;BME280;57264;47.480;19.354;2023-03-03T04:15:10;99249.38;;;2.25;88.19
44697;BME280;57264;47.480;19.354;2023-03-03T04:17:35;99247.94;;;2.23;88.21
44697;BME280;57264;47.480;19.354;2023-03-03T04:20:02;99249.06;;;2.20;88.53
44697;BME280;57264;47.480;19.354;2023-03-03T04:22:28;99241.81;;;2.06;88.80
44697;BME280;57264;47.480;19.354;2023-03-03T04:25:05;99245.03;;;2.00;88.53
44697;BME280;57264;47.480;19.354;2023-03-03T04:27:35;99237.72;;;1.96;88.81
44697;BME280;57264;47.480;19.354;2023-03-03T04:30:01;99242.97;;;1.86;89.29
44697;BME280;57264;47.480;19.354;2023-03-03T04:32:27;99240.94;;;1.98;89.74
44697;BME280;57264;47.480;19.354;2023-03-03T04:34:54;99244.72;;;2.03;89.49
44697;BME280;57264;47.480;19.354;2023-03-03T04:37:20;99236.66;;;2.06;89.27
44697;BME280;57264;47.480;19.354;2023-03-03T04:39:46;99239.97;;;2.16;89.52
44697;BME280;57264;47.480;19.354;2023-03-03T04:42:11;99233.72;;;2.27;89.22
44697;BME280;57264;47.480;19.354;2023-03-03T04:44:37;99231.66;;;2.13;88.82
44697;BME280;57264;47.480;19.354;2023-03-03T04:47:03;99237.72;;;1.78;88.52
44697;BME280;57264;47.480;19.354;2023-03-03T04:49:29;99233.59;;;1.50;89.08
44697;BME280;57264;47.480;19.354;2023-03-03T04:51:55;99237.22;;;1.57;89.82
44697;BME280;57264;47.480;19.354;2023-03-03T04:54:21;99230.19;;;1.84;90.30
44697;BME280;57264;47.480;19.354;2023-03-03T04:56:46;99229.06;;;1.87;89.86
44697;BME280;57264;47.480;19.354;2023-03-03T04:59:12;99232.91;;;1.83;90.06
44697;BME280;57264;47.480;19.354;2023-03-03T05:01:38;99231.66;;;1.87;90.24
44697;BME280;57264;47.480;19.354;2023-03-03T05:04:03;99235.72;;;1.89;90.21
44697;BME280;57264;47.480;19.354;2023-03-03T05:06:29;99240.38;;;1.86;90.23
44697;BME280;57264;47.480;19.354;2023-03-03T05:08:54;99245.19;;;1.81;90.04
44697;BME280;57264;47.480;19.354;2023-03-03T05:11:20;99237.00;;;1.68;89.37
44697;BME280;57264;47.480;19.354;2023-03-03T05:13:45;99238.75;;;1.85;89.08
44697;BME280;57264;47.480;19.354;2023-03-03T05:16:11;99234.47;;;1.76;88.69
44697;BME280;57264;47.480;19.354;2023-03-03T05:18:37;99239.66;;;1.76;89.43
44697;BME280;57264;47.480;19.354;2023-03-03T05:21:03;99234.94;;;1.97;89.78
44697;BME280;57264;47.480;19.354;2023-03-03T05:23:29;99237.53;;;1.97;88.48
44697;BME280;57264;47.480;19.354;2023-03-03T05:25:55;99241.25;;;1.77;88.54
44697;BME280;57264;47.480;19.354;2023-03-03T05:28:21;99243.94;;;1.67;88.51
44697;BME280;57264;47.480;19.354;2023-03-03T05:30:46;99246.84;;;1.64;88.66
44697;BME280;57264;47.480;19.354;2023-03-03T05:33:14;99238.53;;;1.78;89.60
44697;BME280;57264;47.480;19.354;2023-03-03T05:35:40;99245.47;;;1.96;90.67
44697;BME280;57264;47.480;19.354;2023-03-03T05:38:06;99243.00;;;2.12;90.12
44697;BME280;57264;47.480;19.354;2023-03-03T05:40:31;99254.50;;;2.17;90.13
44697;BME280;57264;47.480;19.354;2023-03-03T05:42:57;99253.88;;;2.15;89.53
44697;BME280;57264;47.480;19.354;2023-03-03T05:45:23;99252.84;;;2.08;89.00
44697;BME280;57264;47.480;19.354;2023-03-03T05:47:50;99263.50;;;2.05;89.13
44697;BME280;57264;47.480;19.354;2023-03-03T05:50:17;99252.53;;;2.11;88.60
44697;BME280;57264;47.480;19.354;2023-03-03T05:52:43;99250.16;;;2.18;88.74
44697;BME280;57264;47.480;19.354;2023-03-03T05:55:09;99252.38;;;2.39;88.40
44697;BME280;57264;47.480;19.354;2023-03-03T05:57:35;99249.84;;;2.47;88.28
44697;BME280;57264;47.480;19.354;2023-03-03T06:00:05;99254.03;;;2.40;87.94
44697;BME280;57264;47.480;19.354;2023-03-03T06:02:31;99262.06;;;2.28;87.54
44697;BME280;57264;47.480;19.354;2023-03-03T06:04:56;99267.28;;;2.37;87.71
44697;BME280;57264;47.480;19.354;2023-03-03T06:07:22;99249.81;;;2.39;87.50
44697;BME280;57264;47.480;19.354;2023-03-03T06:09:47;99254.25;;;2.54;86.93
44697;BME280;57264;47.480;19.354;2023-03-03T06:12:13;99258.06;;;2.68;86.84
44697;BME280;57264;47.480;19.354;2023-03-03T06:14:39;99259.75;;;2.85;86.73
44697;BME280;57264;47.480;19.354;2023-03-03T06:17:04;99262.22;;;2.95;86.27
44697;BME280;57264;47.480;19.354;2023-03-03T06:19:30;99268.25;;;3.03;86.07
44697;BME280;57264;47.480;19.354;2023-03-03T06:21:56;99266.50;;;3.12;86.04
44697;BME280;57264;47.480;19.354;2023-03-03T06:24:22;99266.09;;;3.33;86.51
44697;BME280;57264;47.480;19.354;2023-03-03T06:26:50;99263.03;;;3.53;86.15
44697;BME280;57264;47.480;19.354;2023-03-03T06:29:16;99267.59;;;3.75;86.06
44697;BME280;57264;47.480;19.354;2023-03-03T06:31:42;99277.53;;;3.96;84.76
44697;BME280;57264;47.480;19.354;2023-03-03T06:34:08;99258.50;;;4.28;84.36
44697;BME280;57264;47.480;19.354;2023-03-03T06:36:33;99261.56;;;4.48;83.96
44697;BME280;57264;47.480;19.354;2023-03-03T06:38:59;99264.59;;;4.67;83.22
44697;BME280;57264;47.480;19.354;2023-03-03T06:41:25;99263.44;;;4.62;82.69
44697;BME280;57264;47.480;19.354;2023-03-03T06:43:51;99259.03;;;4.70;82.81
44697;BME280;57264;47.480;19.354;2023-03-03T06:46:16;99263.09;;;4.81;82.68
44697;BME280;57264;47.480;19.354;2023-03-03T06:48:42;99263.88;;;4.82;82.21
44697;BME280;57264;47.480;19.354;2023-03-03T06:51:40;99270.84;;;4.97;81.74
44697;BME280;57264;47.480;19.354;2023-03-03T06:54:23;99265.59;;;5.05;81.60
44697;BME280;57264;47.480;19.354;2023-03-03T06:56:56;99278.38;;;5.15;80.73
44697;BME280;57264;47.480;19.354;2023-03-03T06:59:23;99276.25;;;5.18;80.12
44697;BME280;57264;47.480;19.354;2023-03-03T07:01:51;99273.84;;;5.17;80.46
44697;BME280;57264;47.480;19.354;2023-03-03T07:04:24;99273.00;;;5.16;80.89
44697;BME280;57264;47.480;19.354;2023-03-03T07:07:21;99280.44;;;5.28;80.76
44697;BME280;57264;47.480;19.354;2023-03-03T07:09:53;99281.56;;;5.33;79.96
44697;BME280;57264;47.480;19.354;2023-03-03T07:12:25;99289.13;;;5.43;80.76
44697;BME280;57264;47.480;19.354;2023-03-03T07:15:11;99288.28;;;5.50;79.95
44697;BME280;57264;47.480;19.354;2023-03-03T07:17:41;99290.56;;;5.53;80.31
44697;BME280;57264;47.480;19.354;2023-03-03T07:20:18;99295.53;;;5.63;80.25
44697;BME280;57264;47.480;19.354;2023-03-03T07:22:45;99297.47;;;5.69;80.25
44697;BME280;57264;47.480;19.354;2023-03-03T07:25:33;99295.88;;;5.83;79.79
44697;BME280;57264;47.480;19.354;2023-03-03T07:28:27;99300.94;;;5.84;79.19
44697;BME280;57264;47.480;19.354;2023-03-03T07:30:55;99301.13;;;6.05;79.02
44697;BME280;57264;47.480;19.354;2023-03-03T07:33:27;99305.41;;;5.98;78.18
44697;BME280;57264;47.480;19.354;2023-03-03T07:35:55;99309.94;;;6.04;79.07
44697;BME280;57264;47.480;19.354;2023-03-03T07:41:19;99298.00;;;6.47;76.14
44697;BME280;57264;47.480;19.354;2023-03-03T07:44:26;99304.75;;;6.42;76.97
44697;BME280;57264;47.480;19.354;2023-03-03T07:46:49;99310.03;;;6.48;76.71
44697;BME280;57264;47.480;19.354;2023-03-03T07:49:28;99300.06;;;6.52;76.66
44697;BME280;57264;47.480;19.354;2023-03-03T07:51:58;99305.47;;;6.65;77.61
44697;BME280;57264;47.480;19.354;2023-03-03T07:54:38;99306.59;;;7.36;74.20
44697;BME280;57264;47.480;19.354;2023-03-03T07:59:37;99304.63;;;7.95;70.88
44697;BME280;57264;47.480;19.354;2023-03-03T08:04:51;99308.28;;;7.79;71.90
44697;BME280;57264;47.480;19.354;2023-03-03T08:07:18;99311.25;;;7.55;72.21
44697;BME280;57264;47.480;19.354;2023-03-03T08:10:07;99308.78;;;8.11;70.39
44697;BME280;57264;47.480;19.354;2023-03-03T08:12:48;99306.25;;;7.96;71.00
44697;BME280;57264;47.480;19.354;2023-03-03T08:15:18;99306.97;;;8.11;70.29
44697;BME280;57264;47.480;19.354;2023-03-03T08:17:45;99302.78;;;8.10;70.20
44697;BME280;57264;47.480;19.354;2023-03-03T08:23:12;99299.28;;;8.80;67.45
44697;BME280;57264;47.480;19.354;2023-03-03T08:25:38;99293.19;;;9.07;65.91
44697;BME280;57264;47.480;19.354;2023-03-03T08:28:05;99298.81;;;9.04;65.57
44697;BME280;57264;47.480;19.354;2023-03-03T08:30:30;99291.16;;;8.68;66.33
44697;BME280;57264;47.480;19.354;2023-03-03T08:32:56;99292.81;;;9.10;66.60
44697;BME280;57264;47.480;19.354;2023-03-03T08:35:22;99296.69;;;9.21;65.43
44697;BME280;57264;47.480;19.354;2023-03-03T08:37:48;99299.69;;;9.18;64.95
44697;BME280;57264;47.480;19.354;2023-03-03T08:40:13;99303.47;;;9.09;66.37
44697;BME280;57264;47.480;19.354;2023-03-03T08:42:39;99296.22;;;9.71;63.65
44697;BME280;57264;47.480;19.354;2023-03-03T08:45:05;99301.53;;;9.98;62.19
44697;BME280;57264;47.480;19.354;2023-03-03T08:47:30;99302.28;;;9.59;62.87
44697;BME280;57264;47.480;19.354;2023-03-03T08:49:56;99296.94;;;9.32;62.74
44697;BME280;57264;47.480;19.354;2023-03-03T08:52:22;99290.56;;;9.55;61.61
44697;BME280;57264;47.480;19.354;2023-03-03T08:54:47;99291.56;;;9.54;63.23
44697;BME280;57264;47.480;19.354;2023-03-03T08:57:13;99293.31;;;9.33;63.88
44697;BME280;57264;47.480;19.354;2023-03-03T08:59:39;99292.09;;;9.29;64.11
44697;BME280;57264;47.480;19.354;2023-03-03T09:02:05;99290.94;;;9.52;64.27
44697;BME280;57264;47.480;19.354;2023-03-03T09:04:31;99295.16;;;9.46;64.31
44697;BME280;57264;47.480;19.354;2023-03-03T09:06:57;99298.25;;;9.69;61.41
44697;BME280;57264;47.480;19.354;2023-03-03T09:09:23;99299.56;;;9.39;61.80
44697;BME280;57264;47.480;19.354;2023-03-03T09:12:16;99295.94;;;9.40;63.09
44697;BME280;57264;47.480;19.354;2023-03-03T09:14:43;99289.22;;;9.85;62.57
44697;BME280;57264;47.480;19.354;2023-03-03T09:17:38;99287.66;;;10.30;61.71
44697;BME280;57264;47.480;19.354;2023-03-03T09:20:30;99290.88;;;10.32;59.86
44697;BME280;57264;47.480;19.354;2023-03-03T09:22:58;99288.03;;;10.66;59.30
44697;BME280;57264;47.480;19.354;2023-03-03T09:25:33;99291.47;;;10.47;58.83
44697;BME280;57264;47.480;19.354;2023-03-03T09:28:01;99288.63;;;10.03;58.47
44697;BME280;57264;47.480;19.354;2023-03-03T09:30:37;99280.13;;;9.81;60.84
44697;BME280;57264;47.480;19.354;2023-03-03T09:33:28;99294.63;;;9.77;62.49
44697;BME280;57264;47.480;19.354;2023-03-03T09:38:47;99295.84;;;9.87;61.65
44697;BME280;57264;47.480;19.354;2023-03-03T09:41:58;99299.06;;;9.76;61.97
44697;BME280;57264;47.480;19.354;2023-03-03T09:44:40;99304.88;;;9.11;63.10
44697;BME280;57264;47.480;19.354;2023-03-03T09:53:01;99293.22;;;8.45;64.84
44697;BME280;57264;47.480;19.354;2023-03-03T10:11:37;99296.84;;;9.13;64.42
44697;BME280;57264;47.480;19.354;2023-03-03T10:17:33;99290.81;;;9.19;64.56
44697;BME280;57264;47.480;19.354;2023-03-03T10:23:23;99280.72;;;9.09;62.88
44697;BME280;57264;47.480;19.354;2023-03-03T10:26:36;99270.84;;;9.11;63.70
44697;BME280;57264;47.480;19.354;2023-03-03T10:49:25;99262.38;;;9.03;63.54
44697;BME280;57264;47.480;19.354;2023-03-03T10:57:55;99259.25;;;9.33;64.23
44697;BME280;57264;47.480;19.354;2023-03-03T11:00:28;99255.06;;;9.46;62.28
44697;BME280;57264;47.480;19.354;2023-03-03T11:03:25;99249.66;;;9.67;62.37
44697;BME280;57264;47.480;19.354;2023-03-03T11:06:00;99254.91;;;9.80;61.85
44697;BME280;57264;47.480;19.354;2023-03-03T11:08:35;99249.03;;;9.71;60.50
44697;BME280;57264;47.480;19.354;2023-03-03T11:21:54;99229.31;;;10.41;60.54
44697;BME280;57264;47.480;19.354;2023-03-03T11:30:30;99211.94;;;10.53;59.52
44697;BME280;57264;47.480;19.354;2023-03-03T11:33:09;99211.50;;;10.69;58.62
44697;BME280;57264;47.480;19.354;2023-03-03T11:38:47;99204.44;;;10.57;58.76
44697;BME280;57264;47.480;19.354;2023-03-03T11:41:38;99202.16;;;10.80;58.24
44697;BME280;57264;47.480;19.354;2023-03-03T11:46:54;99205.78;;;10.86;56.76
44697;BME280;57264;47.480;19.354;2023-03-03T11:49:32;99193.75;;;11.09;56.08
44697;BME280;57264;47.480;19.354;2023-03-03T11:57:43;99194.44;;;10.98;55.53
44697;BME280;57264;47.480;19.354;2023-03-03T12:03:15;99177.00;;;11.10;56.96
44697;BME280;57264;47.480;19.354;2023-03-03T12:08:41;99188.31;;;11.11;56.46
44697;BME280;57264;47.480;19.354;2023-03-03T12:11:20;99184.31;;;11.02;56.27
44697;BME280;57264;47.480;19.354;2023-03-03T12:14:09;99177.44;;;11.01;54.47
44697;BME280;57264;47.480;19.354;2023-03-03T12:19:37;99163.47;;;11.07;53.58
44697;BME280;57264;47.480;19.354;2023-03-03T12:25:34;99159.94;;;11.19;54.48
44697;BME280;57264;47.480;19.354;2023-03-03T12:28:21;99169.00;;;11.30;54.14
44697;BME280;57264;47.480;19.354;2023-03-03T12:39:26;99157.03;;;11.34;54.63
44697;BME280;57264;47.480;19.354;2023-03-03T12:42:30;99159.69;;;11.27;55.05
44697;BME280;57264;47.480;19.354;2023-03-03T12:48:08;99156.28;;;10.89;54.27
44697;BME280;57264;47.480;19.354;2023-03-03T12:51:07;99154.91;;;11.18;55.85
44697;BME280;57264;47.480;19.354;2023-03-03T12:59:19;99158.84;;;11.02;55.69
44697;BME280;57264;47.480;19.354;2023-03-03T13:04:55;99148.47;;;11.14;55.11
44697;BME280;57264;47.480;19.354;2023-03-03T13:10:51;99144.28;;;11.38;54.15
44697;BME280;57264;47.480;19.354;2023-03-03T13:15:47;99141.97;;;11.48;52.55
44697;BME280;57264;47.480;19.354;2023-03-03T13:20:54;99140.94;;;11.55;53.25
44697;BME280;57264;47.480;19.354;2023-03-03T13:29:24;99127.31;;;12.08;52.88
44697;BME280;57264;47.480;19.354;2023-03-03T13:31:54;99128.72;;;12.10;54.24
44697;BME280;57264;47.480;19.354;2023-03-03T13:34:42;99122.81;;;12.15;53.19
44697;BME280;57264;47.480;19.354;2023-03-03T13:37:21;99120.31;;;12.20;53.12
44697;BME280;57264;47.480;19.354;2023-03-03T13:45:36;99119.41;;;11.90;53.20
44697;BME280;57264;47.480;19.354;2023-03-03T13:48:24;99115.50;;;11.99;53.07
44697;BME280;57264;47.480;19.354;2023-03-03T13:51:06;99110.81;;;12.01;53.14
44697;BME280;57264;47.480;19.354;2023-03-03T14:05:00;99119.03;;;11.61;55.19
44697;BME280;57264;47.480;19.354;2023-03-03T14:07:36;99116.94;;;11.45;54.49
44697;BME280;57264;47.480;19.354;2023-03-03T14:10:32;99111.50;;;11.40;54.99
44697;BME280;57264;47.480;19.354;2023-03-03T14:13:09;99111.56;;;11.34;56.04
44697;BME280;57264;47.480;19.354;2023-03-03T14:15:49;99111.63;;;11.27;55.57
44697;BME280;57264;47.480;19.354;2023-03-03T14:18:38;99106.75;;;10.93;56.49
44697;BME280;57264;47.480;19.354;2023-03-03T14:21:15;99102.75;;;10.84;56.84
44697;BME280;57264;47.480;19.354;2023-03-03T14:23:50;99099.63;;;10.68;57.51
44697;BME280;57264;47.480;19.354;2023-03-03T14:26:18;99101.91;;;10.58;57.87
44697;BME280;57264;47.480;19.354;2023-03-03T14:28:46;99090.13;;;10.67;57.90
44697;BME280;57264;47.480;19.354;2023-03-03T14:31:26;99092.97;;;10.59;57.90
44697;BME280;57264;47.480;19.354;2023-03-03T14:36:40;99088.16;;;10.56;58.42
44697;BME280;57264;47.480;19.354;2023-03-03T14:39:40;99084.78;;;10.49;58.46
44697;BME280;57264;47.480;19.354;2023-03-03T14:44:59;99088.91;;;10.25;58.68
44697;BME280;57264;47.480;19.354;2023-03-03T14:47:28;99087.69;;;10.21;59.32
44697;BME280;57264;47.480;19.354;2023-03-03T14:49:55;99087.31;;;10.18;59.10
44697;BME280;57264;47.480;19.354;2023-03-03T14:52:27;99083.88;;;10.04;59.57
44697;BME280;57264;47.480;19.354;2023-03-03T14:54:55;99086.13;;;9.94;60.17
44697;BME280;57264;47.480;19.354;2023-03-03T14:57:40;99086.94;;;9.95;60.12
44697;BME280;57264;47.480;19.354;2023-03-03T15:05:25;99083.31;;;9.82;60.88
44697;BME280;57264;47.480;19.354;2023-03-03T15:07:57;99077.47;;;9.67;61.74
44697;BME280;57264;47.480;19.354;2023-03-03T15:13:12;99084.16;;;9.50;61.85
44697;BME280;57264;47.480;19.354;2023-03-03T15:16:09;99086.56;;;9.32;62.29
44697;BME280;57264;47.480;19.354;2023-03-03T15:21:36;99091.22;;;9.30;63.64
44697;BME280;57264;47.480;19.354;2023-03-03T15:27:00;99095.81;;;9.15;64.28
44697;BME280;57264;47.480;19.354;2023-03-03T15:32:17;99096.03;;;9.13;63.86
44697;BME280;57264;47.480;19.354;2023-03-03T15:35:13;99104.47;;;9.09;64.36
44697;BME280;57264;47.480;19.354;2023-03-03T16:03:15;99117.41;;;8.56;65.85
44697;BME280;57264;47.480;19.354;2023-03-03T16:06:04;99128.34;;;8.32;67.10
44697;BME280;57264;47.480;19.354;2023-03-03T16:11:17;99129.22;;;8.11;67.62
44697;BME280;57264;47.480;19.354;2023-03-03T16:13:57;99133.56;;;7.97;68.33
44697;BME280;57264;47.480;19.354;2023-03-03T16:16:46;99131.44;;;7.86;68.74
44697;BME280;57264;47.480;19.354;2023-03-03T16:22:03;99140.22;;;7.72;69.38
44697;BME280;57264;47.480;19.354;2023-03-03T16:24:42;99141.72;;;7.39;69.46
44697;BME280;57264;47.480;19.354;2023-03-03T16:27:20;99134.56;;;7.26;70.54
44697;BME280;57264;47.480;19.354;2023-03-03T16:33:36;99151.88;;;7.06;71.05
44697;BME280;57264;47.480;19.354;2023-03-03T16:36:07;99143.63;;;6.88;71.93
44697;BME280;57264;47.480;19.354;2023-03-03T16:38:42;99147.34;;;6.79;72.82
44697;BME280;57264;47.480;19.354;2023-03-03T16:41:18;99148.56;;;6.62;72.50
44697;BME280;57264;47.480;19.354;2023-03-03T16:46:26;99152.78;;;6.19;73.82
44697;BME280;57264;47.480;19.354;2023-03-03T16:49:22;99167.06;;;6.08;74.26
44697;BME280;57264;47.480;19.354;2023-03-03T16:52:16;99157.34;;;5.87;74.84
44697;BME280;57264;47.480;19.354;2023-03-03T17:00:08;99175.16;;;5.07;75.89
44697;BME280;57264;47.480;19.354;2023-03-03T17:02:54;99178.09;;;4.73;77.22
44697;BME280;57264;47.480;19.354;2023-03-03T17:11:36;99178.50;;;4.07;79.37
44697;BME280;57264;47.480;19.354;2023-03-03T17:17:07;99195.88;;;3.66;80.42
44697;BME280;57264;47.480;19.354;2023-03-03T17:25:04;99198.94;;;3.38;81.35
44697;BME280;57264;47.480;19.354;2023-03-03T17:30:44;99189.38;;;3.30;83.03
44697;BME280;57264;47.480;19.354;2023-03-03T17:36:23;99191.44;;;3.10;83.23
44697;BME280;57264;47.480;19.354;2023-03-03T17:44:45;99196.22;;;2.81;82.90
44697;BME280;57264;47.480;19.354;2023-03-03T18:06:30;99210.94;;;2.13;84.47
44697;BME280;57264;47.480;19.354;2023-03-03T18:17:32;99212.91;;;1.93;84.68